Terminal Aerodrome Forecast
Issued by NWS Burlington, VT

Current Version | Previous Version | Text Only | Print | Product List | Glossary On
Versions: 1 2 3 4 5 6 7 8 9 10 11 12 13 14 15 16 17
000 FTUS41 KBTV 230533 TAFBTV TAF KBTV 230533Z 2306/2406 20012KT P6SM VCSH OVC025 FM231400 19010KT P6SM OVC022 FM240200 17007KT P6SM OVC050=

USA.gov is the U.S. government's official web portal to all federal, state and local government web resources and services.